アルジェ の空港の天気 - METARとTAF

ウアリ・ブーメディアン空港 ( DAAG / ALG ) - アルジェリア アルジェ
飛行場実況気象(Metar)
観測時間06/24 10:30 CET (06/24 09:30 UTC)
風向・風速北西 4m/s
視程10km以上
天気現象
少しの雲 雲底高度 790m
気温28℃
湿度62%
気圧1014hPa
METARDAAG 240930Z 31008KT 260V360 9999 FEW026 28/20 Q1014
過去の天気等 Google飛行場航空写真 Wunderground天気予報

過去48時間のMETAR

飛行場予報(TAF)
発表時間: 6/24 06:00 CET (6/24 05:00 UTC)
予報対象時間: 24日7時 CET ~ 25日7時 CET
風向・風速西 5m/s
視程8000m
全天の8割程度の雲 雲底高度 400m
24日8時 CET ~ 24日11時 CET に徐々に
少しの雲 雲底高度 400m
24日18時 CET ~ 24日21時 CET に徐々に
風向・風速不定 1m/s
25日1時 CET から 確率 40% で
全天の8割程度の雲 雲底高度 300m
TAF DAAG 240500Z 2406/2506 28010KT 8000 BKN013
BECMG 2407/2410 FEW013
BECMG 2417/2420 VRB02KT
PROB40 2500/2506 BKN010